Time;durP1;ratioP1;P1;durP2;ratioP2;P2;SDS_P1;SDS_P2;PMS_P1;PMS_P2;Temp;Humidity;BMP_temperature;BMP_pressure;BME280_temperature;BME280_humidity;BME280_pressure;Samples;Min_cycle;Max_cycle;Signal;HPM_P1;HPM_P2
2022/01/19 00:01:09;;;;;;;54.80;22.20;;;7.40;82.60;;;;;;6065557;23;92362;-65
2022/01/19 00:03:36;;;;;;;54.15;21.73;;;7.40;82.50;;;;;;6065825;23;92677;-65
2022/01/19 00:06:04;;;;;;;57.85;22.85;;;7.40;82.50;;;;;;6065240;23;93087;-65
2022/01/19 00:08:31;;;;;;;55.75;22.05;;;7.40;82.70;;;;;;6065849;23;92131;-65
2022/01/19 00:10:58;;;;;;;57.97;22.83;;;7.40;82.50;;;;;;6065103;23;92500;-64
2022/01/19 00:13:26;;;;;;;57.78;23.65;;;7.40;82.30;;;;;;6039441;23;92447;-65
2022/01/19 00:15:53;;;;;;;58.50;22.73;;;7.40;82.20;;;;;;6037439;23;96721;-65
2022/01/19 00:18:22;;;;;;;59.13;23.67;;;7.40;82.30;;;;;;6039337;23;95162;-65
2022/01/19 00:20:50;;;;;;;58.83;24.40;;;7.40;82.50;;;;;;6065181;23;92336;-65
2022/01/19 00:23:18;;;;;;;56.55;22.50;;;7.40;82.70;;;;;;6065462;23;92508;-64
2022/01/19 00:25:47;;;;;;;57.20;24.38;;;7.40;82.80;;;;;;6038698;23;94378;-65
2022/01/19 00:28:15;;;;;;;50.92;23.90;;;7.40;82.10;;;;;;6065281;23;93209;-65
2022/01/19 00:30:43;;;;;;;55.05;22.25;;;7.40;81.80;;;;;;6065424;23;92443;-65
2022/01/19 00:33:10;;;;;;;54.72;22.55;;;7.40;81.90;;;;;;6039322;23;91729;-65
2022/01/19 00:35:37;;;;;;;62.58;24.52;;;7.40;82.00;;;;;;6039066;23;94076;-65
2022/01/19 00:38:06;;;;;;;59.55;24.13;;;7.40;82.40;;;;;;6063225;23;95560;-69
2022/01/19 00:40:35;;;;;;;65.22;26.27;;;7.40;82.40;;;;;;6037534;23;94927;-65
2022/01/19 00:43:02;;;;;;;58.10;23.88;;;7.40;82.50;;;;;;6039289;23;92399;-69
2022/01/19 00:45:30;;;;;;;58.88;23.48;;;7.40;82.40;;;;;;6065418;23;94238;-69
2022/01/19 00:48:02;;;;;;;62.78;26.63;;;7.30;82.10;;;;;;6064961;23;92922;-69
2022/01/19 00:50:30;;;;;;;66.22;25.23;;;7.30;82.50;;;;;;6065198;23;92455;-69
2022/01/19 00:52:57;;;;;;;64.32;25.50;;;7.40;82.30;;;;;;6038908;23;92469;-69
2022/01/19 00:55:27;;;;;;;73.72;27.27;;;7.40;82.20;;;;;;6065171;23;92973;-69
2022/01/19 00:57:54;;;;;;;63.92;25.92;;;7.40;82.30;;;;;;6039745;23;92854;-69
2022/01/19 01:00:25;;;;;;;65.60;26.60;;;7.40;82.30;;;;;;6065150;23;92594;-69
2022/01/19 01:02:52;;;;;;;56.08;24.45;;;7.40;82.60;;;;;;6064503;23;92309;-69
2022/01/19 01:05:20;;;;;;;63.08;25.70;;;7.40;82.20;;;;;;6037995;23;95476;-69
2022/01/19 01:07:47;;;;;;;63.97;25.73;;;7.30;82.50;;;;;;6064910;23;96221;-69
2022/01/19 01:10:16;;;;;;;69.50;25.65;;;7.30;82.40;;;;;;6039198;23;92499;-70
2022/01/19 01:12:52;;;;;;;58.25;25.55;;;7.40;82.10;;;;;;6039814;23;92489;-70
2022/01/19 01:18:18;;;;;;;61.00;24.48;;;7.40;82.20;;;;;;6043723;23;94192;-69
2022/01/19 01:20:52;;;;;;;66.43;25.05;;;7.30;82.00;;;;;;6039017;23;92470;-70
2022/01/19 01:23:22;;;;;;;56.83;24.33;;;7.30;82.00;;;;;;6040069;23;91794;-69
2022/01/19 01:25:51;;;;;;;51.58;22.90;;;7.30;81.80;;;;;;6038812;23;94000;-69
2022/01/19 01:28:19;;;;;;;53.08;22.27;;;7.30;81.80;;;;;;6038853;23;95299;-69
2022/01/19 01:30:47;;;;;;;52.03;22.75;;;7.30;81.70;;;;;;6037633;23;95115;-69
2022/01/19 01:33:14;;;;;;;51.17;22.77;;;7.40;81.70;;;;;;6064957;23;93273;-69
2022/01/19 01:35:41;;;;;;;48.40;21.10;;;7.30;81.70;;;;;;6038879;23;95973;-69
2022/01/19 01:38:08;;;;;;;55.70;22.13;;;7.30;81.90;;;;;;6038518;23;95561;-69
2022/01/19 01:40:37;;;;;;;56.85;21.92;;;7.30;81.80;;;;;;6038606;23;92549;-69
2022/01/19 01:43:07;;;;;;;47.60;21.95;;;7.40;81.90;;;;;;6038773;23;92416;-69
2022/01/19 01:45:39;;;;;;;47.00;22.30;;;7.30;81.80;;;;;;6065220;23;92944;-69
2022/01/19 01:48:10;;;;;;;48.45;20.42;;;7.40;82.10;;;;;;6038730;23;95041;-69
2022/01/19 01:53:38;;;;;;;46.97;21.40;;;7.30;82.20;;;;;;6039204;23;92451;-69
2022/01/19 01:56:16;;;;;;;48.00;19.83;;;7.20;81.60;;;;;;6012972;23;98269;-69
2022/01/19 01:58:47;;;;;;;52.03;20.30;;;7.20;81.70;;;;;;6039121;23;97419;-69
2022/01/19 02:01:41;;;;;;;46.78;19.33;;;7.00;82.00;;;;;;6020037;23;92450;-69
2022/01/19 02:04:11;;;;;;;49.10;17.77;;;6.80;82.10;;;;;;6038748;23;92481;-69
2022/01/19 02:09:34;;;;;;;52.63;20.15;;;6.70;82.60;;;;;;6038878;23;95418;-69
2022/01/19 02:23:22;;;;;;;53.75;20.42;;;6.20;83.90;;;;;;6063277;23;94800;-69
2022/01/19 02:25:52;;;;;;;54.70;20.67;;;6.10;83.40;;;;;;6038725;23;92480;-70
2022/01/19 02:36:50;;;;;;;54.42;20.50;;;5.80;84.30;;;;;;6038675;23;92612;-69
2022/01/19 02:42:08;;;;;;;57.22;21.83;;;5.80;84.60;;;;;;6018817;23;93977;-69
2022/01/19 02:49:44;;;;;;;54.75;20.00;;;5.90;84.60;;;;;;6063056;23;96400;-69
2022/01/19 02:52:12;;;;;;;48.80;18.88;;;5.90;84.60;;;;;;6038078;23;97939;-69
2022/01/19 02:54:39;;;;;;;54.13;20.30;;;5.90;84.60;;;;;;6038506;23;94093;-69
2022/01/19 02:57:10;;;;;;;47.70;19.20;;;6.00;84.40;;;;;;6038476;23;92448;-69
2022/01/19 03:10:34;;;;;;;48.60;20.10;;;6.10;85.00;;;;;;6038620;23;95949;-69
2022/01/19 03:13:02;;;;;;;52.22;17.77;;;6.10;84.80;;;;;;6038450;23;95369;-69
2022/01/19 03:15:29;;;;;;;49.50;19.02;;;6.20;84.70;;;;;;6036809;23;94792;-69
2022/01/19 03:17:59;;;;;;;47.45;19.27;;;6.20;84.60;;;;;;6038412;23;92807;-69
2022/01/19 03:20:28;;;;;;;47.22;18.80;;;6.30;84.60;;;;;;6064049;23;92919;-69
2022/01/19 03:25:25;;;;;;;59.70;21.58;;;6.30;85.00;;;;;;6064621;23;92380;-69
2022/01/19 03:27:52;;;;;;;57.72;20.17;;;6.40;85.10;;;;;;6040080;23;92414;-69
2022/01/19 03:30:20;;;;;;;47.17;19.73;;;6.40;85.10;;;;;;6063637;23;95502;-69
2022/01/19 03:32:48;;;;;;;52.50;20.65;;;6.50;84.80;;;;;;6066088;23;92835;-69
2022/01/19 03:35:15;;;;;;;59.65;21.60;;;6.50;84.80;;;;;;6039398;23;92584;-69
2022/01/19 03:37:44;;;;;;;62.10;22.52;;;6.50;84.90;;;;;;6039394;23;92483;-69
2022/01/19 03:40:12;;;;;;;53.20;19.65;;;6.60;84.80;;;;;;6038053;23;96562;-69
2022/01/19 03:42:39;;;;;;;48.22;19.98;;;6.50;84.80;;;;;;6038951;23;97928;-69
2022/01/19 03:45:08;;;;;;;60.55;22.20;;;6.50;85.00;;;;;;6039568;23;92440;-69
2022/01/19 03:47:44;;;;;;;57.50;21.77;;;6.60;85.30;;;;;;6039225;23;92482;-70
2022/01/19 03:50:12;;;;;;;59.00;21.80;;;6.60;85.20;;;;;;6065995;23;92969;-70
2022/01/19 03:52:39;;;;;;;51.70;21.40;;;6.50;85.40;;;;;;6039822;23;95501;-70
2022/01/19 03:55:08;;;;;;;62.80;22.55;;;6.50;85.40;;;;;;6063934;23;92403;-69
2022/01/19 03:57:35;;;;;;;62.38;22.70;;;6.50;85.50;;;;;;6039630;23;91813;-69
2022/01/19 04:00:04;;;;;;;55.92;21.52;;;6.50;85.30;;;;;;6063739;23;94251;-69
2022/01/19 04:02:31;;;;;;;66.90;21.45;;;6.60;85.00;;;;;;6039748;23;92720;-69
2022/01/19 04:05:05;;;;;;;69.78;22.40;;;6.60;85.00;;;;;;6063768;23;94760;-68
2022/01/19 04:07:36;;;;;;;57.03;22.20;;;6.60;85.20;;;;;;6039330;23;92489;-69
2022/01/19 04:10:05;;;;;;;57.08;21.52;;;6.60;84.90;;;;;;6065491;23;94085;-69
2022/01/19 04:15:10;;;;;;;53.15;20.52;;;6.50;85.40;;;;;;6039564;23;92398;-68
2022/01/19 04:17:42;;;;;;;62.00;23.35;;;6.50;84.60;;;;;;6039179;23;92440;-68
2022/01/19 04:20:10;;;;;;;53.55;21.75;;;6.50;84.90;;;;;;6039488;23;95648;-68
2022/01/19 04:22:38;;;;;;;47.65;20.05;;;6.50;85.00;;;;;;6038940;23;93861;-68
2022/01/19 04:25:07;;;;;;;52.80;21.10;;;6.40;84.90;;;;;;6038920;23;92525;-67
2022/01/19 04:27:34;;;;;;;47.03;20.58;;;6.40;84.70;;;;;;6038927;23;92455;-64
2022/01/19 04:30:09;;;;;;;48.95;20.75;;;6.40;84.60;;;;;;6037535;23;97447;-64
2022/01/19 04:35:32;;;;;;;46.05;20.20;;;6.40;84.90;;;;;;6039371;23;92778;-64
2022/01/19 04:46:13;;;;;;;40.75;19.20;;;6.40;84.40;;;;;;6039423;23;92774;-64
2022/01/19 05:05:27;;;;;;;56.78;23.10;;;6.30;84.70;;;;;;6065256;23;93914;-64
2022/01/19 05:08:14;;;;;;;54.65;23.73;;;6.20;84.50;;;;;;6039255;23;92565;-64
2022/01/19 05:15:58;;;;;;;50.28;24.17;;;6.20;84.40;;;;;;6016379;23;95394;-64
2022/01/19 05:18:25;;;;;;;49.72;22.65;;;6.20;84.50;;;;;;6039115;23;92461;-64
2022/01/19 05:20:52;;;;;;;51.83;23.10;;;6.30;84.30;;;;;;6039407;23;92507;-64
2022/01/19 05:23:39;;;;;;;58.03;25.92;;;6.20;84.50;;;;;;6063088;23;96305;-64
2022/01/19 05:26:07;;;;;;;54.55;24.40;;;6.30;84.40;;;;;;6038833;23;97894;-64
2022/01/19 05:28:39;;;;;;;57.42;24.50;;;6.30;83.90;;;;;;6039843;23;92461;-64
2022/01/19 05:31:06;;;;;;;55.08;25.23;;;6.30;83.90;;;;;;6039101;23;92452;-64
2022/01/19 05:33:35;;;;;;;56.25;25.95;;;6.30;84.30;;;;;;6038353;23;95356;-64
2022/01/19 05:36:03;;;;;;;63.40;26.40;;;6.30;84.10;;;;;;6038831;23;95180;-64
2022/01/19 05:38:49;;;;;;;58.60;27.73;;;6.30;84.40;;;;;;6064971;23;92395;-64
2022/01/19 05:41:35;;;;;;;62.75;27.10;;;6.30;84.00;;;;;;6065387;23;91740;-64
2022/01/19 05:44:04;;;;;;;62.97;27.65;;;6.20;83.80;;;;;;6039044;23;95210;-64
2022/01/19 05:46:32;;;;;;;58.15;27.80;;;6.20;84.10;;;;;;6014849;23;94437;-65
2022/01/19 05:48:59;;;;;;;62.65;26.90;;;6.20;84.50;;;;;;6036934;23;94862;-64
2022/01/19 05:51:26;;;;;;;62.53;27.02;;;6.10;84.30;;;;;;6063502;23;92418;-64
2022/01/19 05:53:53;;;;;;;60.15;26.38;;;6.10;84.30;;;;;;6038609;23;95592;-64
2022/01/19 05:56:21;;;;;;;58.40;27.58;;;6.10;84.30;;;;;;6038929;23;95502;-64
2022/01/19 05:58:54;;;;;;;55.92;26.83;;;6.10;84.20;;;;;;6038785;23;92486;-64
2022/01/19 06:01:21;;;;;;;56.08;26.73;;;6.10;84.20;;;;;;6038951;23;92435;-64
2022/01/19 06:03:51;;;;;;;60.78;26.50;;;6.10;84.10;;;;;;6064624;23;93025;-64
2022/01/19 06:06:39;;;;;;;52.00;24.83;;;6.20;84.20;;;;;;6033571;23;92689;-64
2022/01/19 06:09:33;;;;;;;58.53;26.80;;;6.20;84.00;;;;;;6063224;23;92491;-64
2022/01/19 06:12:06;;;;;;;57.65;26.20;;;6.20;83.80;;;;;;6039008;23;92711;-66
2022/01/19 06:14:37;;;;;;;48.28;22.67;;;6.20;83.80;;;;;;6037113;23;97939;-64
2022/01/19 06:17:05;;;;;;;52.97;25.38;;;6.20;83.90;;;;;;6038564;23;96536;-64
2022/01/19 06:19:33;;;;;;;60.13;26.38;;;6.20;84.10;;;;;;6038708;23;92722;-63
2022/01/19 06:22:00;;;;;;;55.67;25.52;;;6.20;84.00;;;;;;6038904;23;92880;-64
2022/01/19 06:24:28;;;;;;;54.40;24.10;;;6.30;83.90;;;;;;6038200;23;94317;-64
2022/01/19 06:26:55;;;;;;;48.15;23.10;;;6.30;83.60;;;;;;6014164;23;95504;-64
2022/01/19 06:29:23;;;;;;;54.58;25.17;;;6.30;83.70;;;;;;6038726;23;92783;-64
2022/01/19 06:31:50;;;;;;;54.22;26.25;;;6.30;83.90;;;;;;6039192;23;92162;-64
2022/01/19 06:34:17;;;;;;;54.75;25.95;;;6.30;83.70;;;;;;6038579;23;95498;-64
2022/01/19 06:37:13;;;;;;;58.65;26.38;;;6.30;83.70;;;;;;6044979;23;92967;-67
2022/01/19 06:40:03;;;;;;;54.22;24.33;;;6.30;83.80;;;;;;6042129;23;94748;-66
2022/01/19 06:42:35;;;;;;;51.50;25.52;;;6.30;83.70;;;;;;6033885;23;92479;-66
2022/01/19 06:45:04;;;;;;;57.47;25.90;;;6.30;83.70;;;;;;6033624;23;95275;-66
2022/01/19 06:47:31;;;;;;;60.35;26.05;;;6.30;83.60;;;;;;6033630;23;95050;-64
2022/01/19 06:49:58;;;;;;;57.90;26.77;;;6.30;83.40;;;;;;6033579;23;92445;-67
2022/01/19 06:52:32;;;;;;;51.97;25.38;;;6.40;83.60;;;;;;6034745;23;92484;-64
2022/01/19 06:54:59;;;;;;;58.67;27.60;;;6.40;83.30;;;;;;6033565;23;95375;-64
2022/01/19 06:57:26;;;;;;;51.58;25.20;;;6.40;83.30;;;;;;6034198;23;94277;-64
2022/01/19 07:00:18;;;;;;;55.28;25.90;;;6.40;83.10;;;;;;6034037;23;92432;-64
2022/01/19 07:03:04;;;;;;;53.22;24.73;;;6.40;82.80;;;;;;6034648;23;92360;-64
2022/01/19 07:05:46;;;;;;;49.00;24.23;;;6.40;83.10;;;;;;6032146;23;96548;-64
2022/01/19 07:08:42;;;;;;;48.53;24.25;;;6.40;83.40;;;;;;6009377;23;96083;-66
2022/01/19 07:11:09;;;;;;;46.35;24.88;;;6.40;83.40;;;;;;6033743;23;92419;-66
2022/01/19 07:13:36;;;;;;;49.30;24.20;;;6.30;83.40;;;;;;6035607;23;92512;-66
2022/01/19 07:16:04;;;;;;;46.13;23.55;;;6.30;83.60;;;;;;6033446;23;95384;-66
2022/01/19 07:18:31;;;;;;;49.42;24.48;;;6.40;83.30;;;;;;6033371;23;94066;-67
2022/01/19 07:20:59;;;;;;;48.22;23.25;;;6.40;83.40;;;;;;6033354;23;92448;-67
2022/01/19 07:23:52;;;;;;;44.80;22.17;;;6.40;82.70;;;;;;6031137;23;91737;-67
2022/01/19 07:26:20;;;;;;;42.78;22.45;;;6.30;82.60;;;;;;6033505;23;95424;-67
2022/01/19 07:28:47;;;;;;;39.33;23.00;;;6.30;83.20;;;;;;6009201;23;93922;-66
2022/01/19 07:31:14;;;;;;;46.78;23.13;;;6.40;82.90;;;;;;6032072;23;94881;-66
2022/01/19 07:33:42;;;;;;;37.63;21.35;;;6.40;82.90;;;;;;6035079;23;92444;-66
2022/01/19 07:36:10;;;;;;;38.28;21.67;;;6.40;82.90;;;;;;6033132;23;94775;-66
2022/01/19 07:38:37;;;;;;;37.88;20.20;;;6.40;82.20;;;;;;6033353;23;95299;-66
2022/01/19 07:41:05;;;;;;;39.35;21.42;;;6.40;82.20;;;;;;6033095;23;92539;-66
2022/01/19 07:43:37;;;;;;;37.10;21.48;;;6.40;81.80;;;;;;6033108;23;92552;-66
2022/01/19 07:46:22;;;;;;;39.75;22.45;;;6.40;81.70;;;;;;6035226;23;92946;-66
2022/01/19 07:49:16;;;;;;;36.33;21.88;;;6.40;81.80;;;;;;6030835;23;93664;-66
2022/01/19 07:51:57;;;;;;;35.80;21.73;;;6.40;81.50;;;;;;6033470;23;92459;-66
2022/01/19 07:54:54;;;;;;;36.38;21.95;;;6.40;81.30;;;;;;6015240;23;92513;-66
2022/01/19 07:57:41;;;;;;;40.13;23.40;;;6.40;81.60;;;;;;6031858;23;97743;-66
2022/01/19 08:00:26;;;;;;;36.30;20.02;;;6.40;81.60;;;;;;6034987;23;94929;-66
2022/01/19 08:03:00;;;;;;;36.83;20.52;;;6.40;81.50;;;;;;6033146;23;92550;-66
2022/01/19 08:05:45;;;;;;;33.42;21.27;;;6.40;81.50;;;;;;6057417;23;92442;-66
2022/01/19 08:08:12;;;;;;;34.80;21.13;;;6.40;81.70;;;;;;6032801;23;95832;-66
2022/01/19 08:10:42;;;;;;;37.90;21.95;;;6.40;81.80;;;;;;6032579;23;94000;-66
2022/01/19 08:13:09;;;;;;;35.42;21.75;;;6.50;81.40;;;;;;6033971;23;92452;-66
2022/01/19 08:15:37;;;;;;;33.40;22.42;;;6.40;81.40;;;;;;6034930;23;91752;-66
2022/01/19 08:18:06;;;;;;;34.10;21.42;;;6.40;81.60;;;;;;6033910;23;95568;-66
2022/01/19 08:20:33;;;;;;;38.67;21.13;;;6.40;81.10;;;;;;6058707;23;95343;-66
2022/01/19 08:23:00;;;;;;;32.03;20.48;;;6.50;81.50;;;;;;6032989;23;94860;-65
2022/01/19 08:25:33;;;;;;;38.13;21.63;;;6.50;81.60;;;;;;6034975;23;92467;-66
2022/01/19 08:28:00;;;;;;;32.25;19.70;;;6.50;81.30;;;;;;6034088;23;94655;-66
2022/01/19 08:30:32;;;;;;;32.58;21.42;;;6.50;81.70;;;;;;6034423;23;95412;-66
2022/01/19 08:33:00;;;;;;;34.22;22.60;;;6.50;81.00;;;;;;6034454;23;92321;-65
2022/01/19 08:35:38;;;;;;;31.63;21.38;;;6.50;81.40;;;;;;6034924;23;92444;-65
2022/01/19 08:38:23;;;;;;;32.47;21.30;;;6.50;81.00;;;;;;6036221;23;92801;-66
2022/01/19 08:41:11;;;;;;;32.25;22.33;;;6.50;81.50;;;;;;6030630;23;91765;-66
2022/01/19 08:43:39;;;;;;;37.20;21.67;;;6.50;80.80;;;;;;6034428;23;92809;-66
2022/01/19 08:46:06;;;;;;;31.83;22.27;;;6.50;80.70;;;;;;6058802;23;92400;-66
2022/01/19 08:48:52;;;;;;;35.30;22.25;;;6.50;81.10;;;;;;6032633;23;96673;-66
2022/01/19 08:51:51;;;;;;;37.28;22.55;;;6.50;80.90;;;;;;6005544;23;95026;-66
2022/01/19 08:54:25;;;;;;;34.35;21.70;;;6.40;80.70;;;;;;6036377;23;92805;-66
2022/01/19 08:57:04;;;;;;;37.35;21.88;;;6.50;81.30;;;;;;6034445;23;92590;-66
2022/01/19 08:59:32;;;;;;;38.35;22.55;;;6.50;81.20;;;;;;6035967;23;93040;-66
2022/01/19 09:02:03;;;;;;;33.47;21.10;;;6.60;80.90;;;;;;6035611;23;94037;-66
2022/01/19 09:04:30;;;;;;;37.28;22.33;;;6.50;80.20;;;;;;6036155;23;92380;-66
2022/01/19 09:06:59;;;;;;;34.63;21.02;;;6.60;80.30;;;;;;6036164;23;91740;-66
2022/01/19 09:09:26;;;;;;;33.70;22.23;;;6.60;80.50;;;;;;6036115;23;92782;-66
2022/01/19 09:11:53;;;;;;;35.10;21.35;;;6.70;80.40;;;;;;6034532;23;93973;-66
2022/01/19 09:14:20;;;;;;;34.15;22.55;;;6.70;81.60;;;;;;6034130;23;94744;-66
2022/01/19 09:16:50;;;;;;;36.58;23.38;;;6.70;80.20;;;;;;6036363;23;92408;-66
2022/01/19 09:19:19;;;;;;;39.08;24.42;;;6.80;80.10;;;;;;6009955;23;95581;-66
2022/01/19 09:21:47;;;;;;;38.13;22.58;;;6.90;80.00;;;;;;6034092;23;94062;-66
2022/01/19 09:24:15;;;;;;;37.80;23.13;;;6.80;79.60;;;;;;6035130;23;92520;-66
2022/01/19 09:26:42;;;;;;;36.05;23.90;;;6.80;80.00;;;;;;6036244;23;92401;-66
2022/01/19 09:29:09;;;;;;;38.50;24.52;;;6.90;79.70;;;;;;6036153;23;92923;-66
2022/01/19 09:31:39;;;;;;;37.72;25.10;;;6.90;79.60;;;;;;6036239;23;93951;-66
2022/01/19 09:34:10;;;;;;;40.55;26.67;;;7.00;79.40;;;;;;6035853;23;92463;-66
2022/01/19 09:36:46;;;;;;;40.22;26.00;;;6.90;79.80;;;;;;6036299;23;92395;-66
2022/01/19 09:39:22;;;;;;;37.40;26.13;;;7.00;79.50;;;;;;6034225;23;95482;-66
2022/01/19 09:41:51;;;;;;;43.92;27.83;;;7.00;79.60;;;;;;6010547;23;97911;-66
2022/01/19 09:44:22;;;;;;;42.97;26.73;;;7.10;79.10;;;;;;6065202;23;92447;-66
2022/01/19 09:46:50;;;;;;;41.10;26.45;;;7.10;79.20;;;;;;6039425;23;92514;-67
2022/01/19 09:49:19;;;;;;;40.13;25.58;;;7.10;79.10;;;;;;6064658;23;92933;-66
2022/01/19 09:51:47;;;;;;;43.70;26.38;;;7.20;78.80;;;;;;6039130;23;93977;-66
2022/01/19 09:54:24;;;;;;;42.27;27.80;;;7.20;78.90;;;;;;6064875;23;92559;-66
2022/01/19 09:56:53;;;;;;;44.60;26.48;;;7.20;78.80;;;;;;6040161;23;91705;-66
2022/01/19 09:59:20;;;;;;;46.00;28.88;;;7.20;78.80;;;;;;6064848;23;92918;-66
2022/01/19 10:01:53;;;;;;;47.47;28.83;;;7.30;78.60;;;;;;6065048;23;92920;-66
2022/01/19 10:04:32;;;;;;;38.70;26.00;;;7.40;78.70;;;;;;6037727;23;95031;-66
2022/01/19 10:07:15;;;;;;;45.20;26.35;;;7.40;78.40;;;;;;6065214;23;92736;-66
2022/01/19 10:09:54;;;;;;;39.00;27.08;;;7.50;78.90;;;;;;6039153;23;92989;-66
2022/01/19 10:18:15;;;;;;;43.67;26.55;;;7.60;78.30;;;;;;6064826;23;92438;-66
2022/01/19 10:20:43;;;;;;;41.35;26.23;;;7.70;77.90;;;;;;6039042;23;98112;-66
2022/01/19 10:23:50;;;;;;;40.15;26.02;;;7.70;77.80;;;;;;6065006;23;92790;-66
2022/01/19 10:26:28;;;;;;;41.15;28.58;;;7.70;77.20;;;;;;6064586;23;92451;-65
2022/01/19 10:29:10;;;;;;;43.08;26.95;;;7.70;77.60;;;;;;6039024;23;92581;-66
2022/01/19 10:31:40;;;;;;;42.63;29.70;;;7.70;77.50;;;;;;6063196;23;95529;-67
2022/01/19 10:34:18;;;;;;;44.80;29.40;;;7.70;78.00;;;;;;6064357;23;95173;-64
2022/01/19 10:36:49;;;;;;;46.38;29.48;;;7.80;77.60;;;;;;6039067;23;92459;-65
2022/01/19 10:39:18;;;;;;;43.83;27.88;;;7.70;77.70;;;;;;6038680;23;92416;-65
2022/01/19 10:42:06;;;;;;;44.90;29.10;;;7.80;77.70;;;;;;6064661;23;93023;-65
2022/01/19 10:44:37;;;;;;;47.38;30.00;;;7.80;77.50;;;;;;6006806;23;93713;-65
2022/01/19 10:47:46;;;;;;;43.90;28.15;;;7.80;77.80;;;;;;6006670;23;92310;-65
2022/01/19 10:50:39;;;;;;;43.47;27.10;;;7.80;77.60;;;;;;6007054;23;91638;-65
2022/01/19 10:53:06;;;;;;;45.28;27.67;;;7.90;77.40;;;;;;6000282;23;96477;-65
2022/01/19 10:55:39;;;;;;;44.75;28.40;;;7.90;77.60;;;;;;5980888;23;92826;-65
2022/01/19 10:58:12;;;;;;;44.25;28.23;;;8.00;77.60;;;;;;6005525;23;95225;-65
2022/01/19 11:00:48;;;;;;;46.25;28.25;;;7.90;77.90;;;;;;6007031;23;92372;-65
2022/01/19 11:03:23;;;;;;;46.45;29.75;;;8.00;77.40;;;;;;6006606;23;93156;-65
2022/01/19 11:05:53;;;;;;;42.70;27.92;;;7.90;77.20;;;;;;6006639;23;92786;-65
2022/01/19 11:08:22;;;;;;;47.80;29.58;;;7.90;77.10;;;;;;6006546;23;92423;-65
2022/01/19 11:10:52;;;;;;;42.67;26.98;;;7.90;77.70;;;;;;6006927;23;92392;-66
2022/01/19 11:13:33;;;;;;;47.22;29.05;;;7.90;77.40;;;;;;6007044;23;93095;-65
2022/01/19 11:16:02;;;;;;;49.45;31.35;;;7.90;77.70;;;;;;6007363;23;92756;-65
2022/01/19 11:18:32;;;;;;;51.95;30.70;;;8.00;77.80;;;;;;6006437;23;92477;-66
2022/01/19 11:21:04;;;;;;;47.55;29.30;;;8.00;77.40;;;;;;6006861;23;92393;-65
2022/01/19 11:24:10;;;;;;;53.22;30.80;;;7.90;77.10;;;;;;6004818;23;94773;-65
2022/01/19 11:26:38;;;;;;;46.70;29.67;;;7.90;77.80;;;;;;5977263;23;95210;-65
2022/01/19 11:29:20;;;;;;;57.42;34.47;;;7.80;77.30;;;;;;6064610;23;92456;-65
2022/01/19 11:31:49;;;;;;;52.83;33.65;;;7.90;78.10;;;;;;6062994;23;92773;-65
2022/01/19 11:34:37;;;;;;;57.00;32.05;;;7.80;77.90;;;;;;6064062;23;92982;-66
2022/01/19 11:37:04;;;;;;;49.50;31.63;;;7.80;78.20;;;;;;6064530;23;92791;-67
2022/01/19 11:39:31;;;;;;;61.63;33.38;;;7.70;78.90;;;;;;6064124;23;92427;-66
2022/01/19 11:42:05;;;;;;;49.45;31.00;;;7.70;78.90;;;;;;6064940;23;91796;-66
2022/01/19 11:44:31;;;;;;;56.50;34.60;;;7.70;78.70;;;;;;6093497;23;92922;-66
2022/01/19 11:47:13;;;;;;;57.22;32.40;;;7.70;78.70;;;;;;6091982;23;94162;-66
2022/01/19 11:49:46;;;;;;;61.72;33.55;;;7.70;79.20;;;;;;6093181;23;94687;-66
2022/01/19 11:52:18;;;;;;;57.38;32.65;;;7.70;79.30;;;;;;6095030;23;92404;-76
2022/01/19 11:54:47;;;;;;;57.90;34.90;;;7.60;79.50;;;;;;6069195;23;92996;-68
2022/01/19 11:57:15;;;;;;;54.03;31.70;;;7.60;80.20;;;;;;6051267;23;93374;-67
2022/01/19 11:59:48;;;;;;;63.53;34.92;;;7.70;79.60;;;;;;6051588;23;92767;-67
2022/01/19 12:02:37;;;;;;;59.03;31.73;;;7.70;79.80;;;;;;6053488;23;92416;-67
2022/01/19 12:05:37;;;;;;;58.50;33.00;;;7.70;80.10;;;;;;6052560;23;94392;-67
2022/01/19 12:08:29;;;;;;;61.95;34.10;;;7.70;80.10;;;;;;6051461;23;99834;-65
2022/01/19 12:11:22;;;;;;;60.30;31.58;;;7.70;80.10;;;;;;6053624;23;93322;-67
2022/01/19 12:14:07;;;;;;;57.13;33.72;;;7.70;80.20;;;;;;6053023;23;93216;-67
2022/01/19 12:17:02;;;;;;;67.07;36.58;;;7.70;79.80;;;;;;6050848;23;95650;-67
2022/01/19 12:19:35;;;;;;;67.05;34.95;;;7.70;79.70;;;;;;6052570;23;96361;-67
2022/01/19 12:22:06;;;;;;;67.47;34.60;;;7.70;80.10;;;;;;6053882;23;93465;-68
2022/01/19 12:24:44;;;;;;;68.53;38.35;;;7.70;80.00;;;;;;6053370;23;93214;-66
2022/01/19 12:27:14;;;;;;;63.40;34.97;;;7.70;79.90;;;;;;6077403;23;93106;-70
2022/01/19 12:30:19;;;;;;;65.60;34.85;;;7.80;80.30;;;;;;6053858;23;93304;-70
2022/01/19 12:32:54;;;;;;;;;;;7.80;79.90;;;;;;6054573;23;93578;-70
2022/01/19 12:35:35;;;;;;;67.45;35.92;;;7.70;79.50;;;;;;6057075;23;92333;-69
2022/01/19 12:38:07;;;;;;;66.60;35.28;;;7.80;80.30;;;;;;6053511;23;94367;-69
2022/01/19 12:40:40;;;;;;;66.95;33.28;;;7.90;79.80;;;;;;6052695;23;92892;-69
2022/01/19 12:43:31;;;;;;;70.23;36.43;;;7.90;80.20;;;;;;6038494;23;95680;-68
2022/01/19 12:45:59;;;;;;;73.82;38.45;;;7.90;79.30;;;;;;6022581;23;92822;-68
2022/01/19 12:48:38;;;;;;;65.18;36.13;;;7.90;79.30;;;;;;6024104;23;93991;-68
2022/01/19 12:51:06;;;;;;;68.72;37.28;;;7.90;79.30;;;;;;6024229;23;94221;-69
2022/01/19 12:53:33;;;;;;;71.93;37.05;;;7.80;80.20;;;;;;6024895;23;93549;-69
2022/01/19 12:56:04;;;;;;;78.80;37.20;;;7.90;79.90;;;;;;6019223;23;93170;-69
2022/01/19 12:58:36;;;;;;;79.40;40.28;;;7.80;80.80;;;;;;6024936;23;93112;-65
2022/01/19 13:01:07;;;;;;;79.88;39.28;;;7.80;80.40;;;;;;6026701;23;93846;-66
2022/01/19 13:03:40;;;;;;;78.32;38.25;;;7.80;81.20;;;;;;6018992;23;93591;-67
2022/01/19 13:06:10;;;;;;;82.53;38.97;;;7.80;81.40;;;;;;6024330;23;93170;-67
2022/01/19 13:08:44;;;;;;;80.82;38.08;;;7.70;82.10;;;;;;5996162;23;97347;-68
2022/01/19 13:11:47;;;;;;;75.82;38.70;;;7.80;82.10;;;;;;6023147;23;95130;-66
2022/01/19 13:14:14;;;;;;;74.22;36.33;;;7.80;81.70;;;;;;6022435;23;92957;-69
2022/01/19 13:16:49;;;;;;;71.97;36.33;;;7.80;81.70;;;;;;6020995;23;92933;-70
2022/01/19 13:19:18;;;;;;;74.03;34.97;;;7.80;81.20;;;;;;6021755;23;93170;-69
2022/01/19 13:21:50;;;;;;;72.25;37.45;;;7.80;81.10;;;;;;6018886;23;93344;-69
2022/01/19 13:24:31;;;;;;;67.90;33.85;;;7.70;81.80;;;;;;6020808;23;94054;-68
2022/01/19 13:27:04;;;;;;;73.68;37.38;;;7.70;81.20;;;;;;6021284;23;92777;-68
2022/01/19 13:29:37;;;;;;;70.60;37.35;;;7.80;81.80;;;;;;6023408;23;93170;-68
2022/01/19 13:32:10;;;;;;;72.43;35.75;;;7.80;81.30;;;;;;6023275;23;93284;-66
2022/01/19 13:34:57;;;;;;;67.72;36.50;;;7.80;81.00;;;;;;6022715;23;96003;-68
2022/01/19 13:37:31;;;;;;;67.88;35.35;;;7.90;80.70;;;;;;6023269;23;93311;-68
2022/01/19 13:40:04;;;;;;;65.20;33.95;;;7.90;81.20;;;;;;6015720;23;94927;-68
2022/01/19 13:42:56;;;;;;;68.68;36.05;;;7.90;80.30;;;;;;6029312;23;92820;-70
2022/01/19 13:45:35;;;;;;;67.90;34.55;;;8.00;80.40;;;;;;6080202;23;93108;-70
2022/01/19 13:48:21;;;;;;;73.07;37.97;;;7.90;80.70;;;;;;6081630;23;93398;-68
2022/01/19 13:50:51;;;;;;;73.38;36.35;;;7.90;80.90;;;;;;6080890;23;93937;-69
2022/01/19 13:53:39;;;;;;;65.95;35.22;;;7.90;80.50;;;;;;6032107;23;92964;-68
2022/01/19 13:56:11;;;;;;;65.70;33.88;;;8.00;80.90;;;;;;6083981;23;93316;-68
2022/01/19 13:58:44;;;;;;;62.22;33.15;;;8.00;79.80;;;;;;6081479;23;92682;-68
2022/01/19 14:01:14;;;;;;;62.83;34.45;;;8.00;80.30;;;;;;6079930;23;96391;-69
2022/01/19 14:03:55;;;;;;;62.42;34.13;;;8.00;80.20;;;;;;6056399;23;97315;-69
2022/01/19 14:06:34;;;;;;;65.55;34.90;;;8.00;80.50;;;;;;6079114;23;93547;-67
2022/01/19 14:09:17;;;;;;;57.30;31.90;;;8.00;80.70;;;;;;6082071;23;92758;-67
2022/01/19 14:11:46;;;;;;;58.88;32.28;;;8.00;80.70;;;;;;6082073;23;93858;-67
2022/01/19 14:14:14;;;;;;;55.25;31.65;;;8.00;80.50;;;;;;6081656;23;94602;-67
2022/01/19 14:16:47;;;;;;;59.22;32.67;;;8.10;80.30;;;;;;6057561;23;93124;-68
2022/01/19 14:19:23;;;;;;;59.58;32.83;;;8.00;80.50;;;;;;6035086;23;92856;-69
2022/01/19 14:22:18;;;;;;;57.88;31.77;;;8.00;80.40;;;;;;6055473;23;93165;-64
2022/01/19 14:24:48;;;;;;;55.72;30.60;;;8.10;80.50;;;;;;6081974;23;92891;-67
2022/01/19 14:27:47;;;;;;;59.28;31.10;;;8.00;80.50;;;;;;6054368;23;95637;-67
2022/01/19 14:30:14;;;;;;;56.85;31.45;;;8.10;80.80;;;;;;6083743;23;93158;-70
2022/01/19 14:32:41;;;;;;;60.42;30.35;;;8.00;81.00;;;;;;6083425;23;93913;-67
2022/01/19 14:35:27;;;;;;;58.08;32.47;;;8.00;81.10;;;;;;6081955;23;93563;-68
2022/01/19 14:38:25;;;;;;;55.38;30.45;;;8.10;81.60;;;;;;6081897;23;92815;-70
2022/01/19 14:40:58;;;;;;;49.10;27.80;;;8.00;81.80;;;;;;6093560;23;92986;-68